createdAt,value
2023-12-23T00:02:21.213Z,5.44
2023-12-23T00:04:49.205Z,5.33
2023-12-23T00:07:17.197Z,5.20
2023-12-23T00:09:45.180Z,5.10
2023-12-23T00:12:13.087Z,5.09
2023-12-23T00:14:42.448Z,5.10
2023-12-23T00:17:10.393Z,5.09
2023-12-23T00:19:38.449Z,5.05
2023-12-23T00:22:06.366Z,5.02
2023-12-23T00:24:34.224Z,4.98
2023-12-23T00:27:02.034Z,4.96
2023-12-23T00:29:30.239Z,4.95
2023-12-23T00:31:59.466Z,4.92
2023-12-23T00:34:27.227Z,4.93
2023-12-23T00:36:55.426Z,4.93
2023-12-23T00:39:23.200Z,4.91
2023-12-23T00:41:51.477Z,4.88
2023-12-23T00:44:19.225Z,4.84
2023-12-23T00:46:47.066Z,4.76
2023-12-23T00:49:17.329Z,4.76
2023-12-23T00:51:45.121Z,4.68
2023-12-23T00:54:12.945Z,4.65
2023-12-23T00:56:40.829Z,4.72
2023-12-23T00:59:08.686Z,4.73
2023-12-23T01:01:36.438Z,4.67
2023-12-23T01:04:04.446Z,4.62
2023-12-23T01:06:33.752Z,4.65
2023-12-23T01:09:01.768Z,4.55
2023-12-23T01:11:29.669Z,4.40
2023-12-23T01:13:56.588Z,4.44
2023-12-23T01:16:24.462Z,4.50
2023-12-23T01:18:52.344Z,4.47
2023-12-23T01:21:21.481Z,4.45
2023-12-23T01:23:50.821Z,4.52
2023-12-23T01:26:18.846Z,4.43
2023-12-23T01:28:46.805Z,4.45
2023-12-23T01:31:14.758Z,4.48
2023-12-23T01:33:42.852Z,4.52
2023-12-23T01:36:10.867Z,4.54
2023-12-23T01:38:38.810Z,4.53
2023-12-23T01:41:08.095Z,4.55
2023-12-23T01:43:36.008Z,4.57
2023-12-23T01:46:05.014Z,4.54
2023-12-23T01:48:38.528Z,4.57
2023-12-23T01:51:06.550Z,4.61
2023-12-23T01:53:35.578Z,4.62
2023-12-23T01:56:03.770Z,4.66
2023-12-23T01:58:35.866Z,4.74
2023-12-23T02:01:04.499Z,4.78
2023-12-23T02:03:33.412Z,4.80
2023-12-23T02:06:01.394Z,4.82
2023-12-23T02:08:31.681Z,4.87
2023-12-23T02:11:06.160Z,4.91
2023-12-23T02:13:40.060Z,4.93
2023-12-23T02:16:08.704Z,4.94
2023-12-23T02:18:37.575Z,4.90
2023-12-23T02:21:07.011Z,4.91
2023-12-23T02:23:34.846Z,4.84
2023-12-23T02:26:06.350Z,4.83
2023-12-23T02:28:35.004Z,4.87
2023-12-23T02:31:03.765Z,4.90
2023-12-23T02:33:31.747Z,4.95
2023-12-23T02:35:59.608Z,4.97
2023-12-23T02:38:28.716Z,4.97
2023-12-23T02:40:56.468Z,4.99
2023-12-23T02:43:24.272Z,5.02
2023-12-23T02:45:52.102Z,5.03
2023-12-23T02:48:20.177Z,5.08
2023-12-23T02:50:48.058Z,5.10
2023-12-23T02:53:15.846Z,4.98
2023-12-23T02:55:44.974Z,5.05
2023-12-23T02:58:12.883Z,5.06
2023-12-23T03:00:40.683Z,5.02
2023-12-23T03:03:08.632Z,5.06
2023-12-23T03:05:36.516Z,5.11
2023-12-23T03:08:04.673Z,5.11
2023-12-23T03:10:32.370Z,5.15
2023-12-23T03:13:01.441Z,5.14
2023-12-23T03:15:29.168Z,5.18
2023-12-23T03:17:56.997Z,5.18
2023-12-23T03:20:27.604Z,5.25
2023-12-23T03:22:55.345Z,5.30
2023-12-23T03:25:23.226Z,5.30
2023-12-23T03:27:50.910Z,5.31
2023-12-23T03:30:20.115Z,5.31
2023-12-23T03:32:48.272Z,5.32
2023-12-23T03:35:16.511Z,5.30
2023-12-23T03:37:45.637Z,5.27
2023-12-23T03:40:13.900Z,5.26
2023-12-23T03:42:41.798Z,5.27
2023-12-23T03:45:10.268Z,5.27
2023-12-23T03:47:42.272Z,5.31
2023-12-23T03:50:12.103Z,5.35
2023-12-23T03:52:40.019Z,5.31
2023-12-23T03:55:08.573Z,5.27
2023-12-23T03:57:36.572Z,5.28
2023-12-23T04:00:05.557Z,5.32
2023-12-23T04:02:33.500Z,5.28
2023-12-23T04:05:02.712Z,5.28
2023-12-23T04:07:30.583Z,5.25
2023-12-23T04:09:58.447Z,5.26
2023-12-23T04:12:26.242Z,5.26
2023-12-23T04:14:53.986Z,5.19
2023-12-23T04:17:22.343Z,5.24
2023-12-23T04:19:51.486Z,5.23
2023-12-23T04:22:20.688Z,5.29
2023-12-23T04:24:48.541Z,5.26
2023-12-23T04:27:16.799Z,5.26
2023-12-23T04:29:44.572Z,5.20
2023-12-23T04:32:12.657Z,5.24
2023-12-23T04:34:40.577Z,5.29
2023-12-23T04:37:08.461Z,5.26
2023-12-23T04:39:37.873Z,5.31
2023-12-23T04:42:06.481Z,5.34
2023-12-23T04:44:34.236Z,5.38
2023-12-23T04:47:02.136Z,5.39
2023-12-23T04:49:29.845Z,5.38
2023-12-23T04:51:57.645Z,5.36
2023-12-23T04:54:27.735Z,5.36
2023-12-23T04:56:56.832Z,5.39
2023-12-23T04:59:24.592Z,5.42
2023-12-23T05:01:52.705Z,5.36
2023-12-23T05:04:20.740Z,5.38
2023-12-23T05:06:48.438Z,5.41
2023-12-23T05:09:16.589Z,5.42
2023-12-23T05:11:44.345Z,5.42
2023-12-23T05:14:13.990Z,5.42
2023-12-23T05:16:41.769Z,5.44
2023-12-23T05:19:09.641Z,5.43
2023-12-23T05:21:37.462Z,5.44
2023-12-23T05:24:05.840Z,5.49
2023-12-23T05:26:33.796Z,5.53
2023-12-23T05:29:01.806Z,5.49
2023-12-23T05:31:30.847Z,5.47
2023-12-23T05:33:59.362Z,5.49
2023-12-23T05:36:27.209Z,5.44
2023-12-23T05:38:54.891Z,5.40
2023-12-23T05:41:22.960Z,5.43
2023-12-23T05:43:51.303Z,5.43
2023-12-23T05:46:19.193Z,5.43
2023-12-23T05:48:48.498Z,5.42
2023-12-23T05:51:16.566Z,5.40
2023-12-23T05:53:44.530Z,5.42
2023-12-23T05:56:12.514Z,5.34
2023-12-23T05:58:40.438Z,5.38
2023-12-23T06:01:08.523Z,5.37
2023-12-23T06:03:36.489Z,5.38
2023-12-23T06:06:06.945Z,5.41
2023-12-23T06:08:35.135Z,5.39
2023-12-23T06:11:05.695Z,5.44
2023-12-23T06:13:34.023Z,5.44
2023-12-23T06:16:06.810Z,5.43
2023-12-23T06:18:35.031Z,5.44
2023-12-23T06:21:03.419Z,5.41
2023-12-23T06:23:33.233Z,5.42
2023-12-23T06:26:01.548Z,5.39
2023-12-23T06:28:29.420Z,5.43
2023-12-23T06:30:57.326Z,5.37
2023-12-23T06:33:25.304Z,5.43
2023-12-23T06:35:53.344Z,5.48
2023-12-23T06:38:21.500Z,5.45
2023-12-23T06:40:50.879Z,5.42
2023-12-23T06:43:44.512Z,5.45
2023-12-23T06:46:06.717Z,5.43
2023-12-23T06:48:35.330Z,5.41
2023-12-23T06:51:04.022Z,5.43
2023-12-23T06:53:31.876Z,5.46
2023-12-23T06:56:01.263Z,5.39
2023-12-23T06:58:30.212Z,5.38
2023-12-23T07:00:58.142Z,5.34
2023-12-23T07:03:26.137Z,5.37
2023-12-23T07:05:53.971Z,5.40
2023-12-23T07:08:22.048Z,5.40
2023-12-23T07:10:50.563Z,5.33
2023-12-23T07:13:20.272Z,5.31
2023-12-23T07:15:47.983Z,5.36
2023-12-23T07:18:15.998Z,5.33
2023-12-23T07:20:44.129Z,5.27
2023-12-23T07:23:12.281Z,5.24
2023-12-23T07:25:39.979Z,5.27
2023-12-23T07:28:07.915Z,5.22
2023-12-23T07:30:41.629Z,5.23
2023-12-23T07:33:09.568Z,5.22
2023-12-23T07:35:37.633Z,5.20
2023-12-23T07:38:06.833Z,5.21
2023-12-23T07:40:36.457Z,5.22
2023-12-23T07:43:04.905Z,5.28
2023-12-23T07:45:32.952Z,5.26
2023-12-23T07:48:02.187Z,5.28
2023-12-23T07:50:30.293Z,5.24
2023-12-23T07:52:58.448Z,5.28
2023-12-23T07:55:28.512Z,5.23
2023-12-23T07:57:56.482Z,5.15
2023-12-23T08:00:24.362Z,5.16
2023-12-23T08:02:52.306Z,5.22
2023-12-23T08:05:21.826Z,5.24
2023-12-23T08:07:50.202Z,5.25
2023-12-23T08:10:19.185Z,5.24
2023-12-23T08:12:46.994Z,5.28
2023-12-23T08:15:14.805Z,5.30
2023-12-23T08:17:42.878Z,5.26
2023-12-23T08:20:12.081Z,5.29
2023-12-23T08:22:42.125Z,5.32
2023-12-23T08:25:11.322Z,5.38
2023-12-23T08:27:39.614Z,5.37
2023-12-23T08:30:08.970Z,5.41
2023-12-23T08:32:37.233Z,5.39
2023-12-23T08:35:05.509Z,5.36
2023-12-23T08:37:33.478Z,5.28
2023-12-23T08:40:02.827Z,5.28
2023-12-23T08:42:30.895Z,5.25
2023-12-23T08:44:58.909Z,5.25
2023-12-23T08:47:26.893Z,5.22
2023-12-23T08:49:54.988Z,5.16
2023-12-23T08:52:22.819Z,5.20
2023-12-23T08:54:50.956Z,5.26
2023-12-23T08:57:20.108Z,5.29
2023-12-23T08:59:47.905Z,5.26
2023-12-23T09:02:15.690Z,5.27
2023-12-23T09:04:43.694Z,5.29
2023-12-23T09:07:13.909Z,5.33
2023-12-23T09:09:42.470Z,5.35
2023-12-23T09:12:10.953Z,5.32
2023-12-23T09:14:40.555Z,5.31
2023-12-23T09:17:08.681Z,5.37
2023-12-23T09:19:36.515Z,5.35
2023-12-23T09:22:05.456Z,5.27
2023-12-23T09:24:33.460Z,5.22
2023-12-23T09:27:02.729Z,5.23
2023-12-23T09:29:31.144Z,5.26
2023-12-23T09:32:00.413Z,5.27
2023-12-23T09:34:28.729Z,5.28
2023-12-23T09:36:56.598Z,5.26
2023-12-23T09:39:24.511Z,5.29
2023-12-23T09:41:52.617Z,5.21
2023-12-23T09:44:21.245Z,5.23
2023-12-23T09:46:50.573Z,5.23
2023-12-23T09:49:20.459Z,5.17
2023-12-23T09:51:49.716Z,5.19
2023-12-23T09:54:22.202Z,5.27
2023-12-23T09:56:52.132Z,5.36
2023-12-23T09:59:20.168Z,5.52
2023-12-23T10:01:48.248Z,5.54
2023-12-23T10:04:16.701Z,5.54
2023-12-23T10:06:46.015Z,5.58
2023-12-23T10:09:13.941Z,5.61
2023-12-23T10:11:42.395Z,5.53
2023-12-23T10:14:10.300Z,5.37
2023-12-23T10:16:42.132Z,5.31
2023-12-23T10:19:11.073Z,5.29
2023-12-23T10:21:41.457Z,5.25
2023-12-23T10:24:10.843Z,5.27
2023-12-23T10:26:40.581Z,5.33
2023-12-23T10:29:11.224Z,5.36
2023-12-23T10:31:42.622Z,5.36
2023-12-23T10:34:18.419Z,5.30
2023-12-23T10:36:46.764Z,5.32
2023-12-23T10:39:23.820Z,5.33
2023-12-23T10:41:58.303Z,5.33
2023-12-23T10:44:28.013Z,5.32
2023-12-23T10:46:57.617Z,5.31
2023-12-23T10:49:26.536Z,5.33
2023-12-23T10:51:55.909Z,5.33
2023-12-23T10:54:28.675Z,5.32
2023-12-23T10:56:58.658Z,5.30
2023-12-23T10:59:26.803Z,5.37
2023-12-23T11:01:57.596Z,5.36
2023-12-23T11:04:28.067Z,5.31
2023-12-23T11:07:00.889Z,5.32
2023-12-23T11:09:32.627Z,5.34
2023-12-23T11:12:01.442Z,5.29
2023-12-23T11:14:30.833Z,5.36
2023-12-23T11:16:59.900Z,5.29
2023-12-23T11:19:28.101Z,5.30
2023-12-23T11:22:23.572Z,5.33
2023-12-23T11:24:53.357Z,5.35
2023-12-23T11:27:32.812Z,5.39
2023-12-23T11:30:02.667Z,5.39
2023-12-23T11:32:36.297Z,5.36
2023-12-23T11:35:05.864Z,5.37
2023-12-23T11:37:54.029Z,5.40
2023-12-23T11:40:24.194Z,5.44
2023-12-23T11:42:52.627Z,5.40
2023-12-23T11:45:21.083Z,5.41
2023-12-23T11:47:50.230Z,5.44
2023-12-23T11:50:19.582Z,5.40
2023-12-23T11:52:47.635Z,5.40
2023-12-23T11:55:17.242Z,5.47
2023-12-23T11:57:46.819Z,5.49
2023-12-23T12:00:16.045Z,5.50
2023-12-23T12:02:43.774Z,5.50
2023-12-23T12:05:12.328Z,5.48
2023-12-23T12:07:40.344Z,5.47
2023-12-23T12:10:09.388Z,5.45
2023-12-23T12:12:37.167Z,5.46
2023-12-23T12:15:07.461Z,5.47
2023-12-23T12:17:35.689Z,5.49
2023-12-23T12:20:04.115Z,5.47
2023-12-23T12:22:31.964Z,5.44
2023-12-23T12:24:59.720Z,5.45
2023-12-23T12:27:27.599Z,5.53
2023-12-23T12:29:55.667Z,5.53
2023-12-23T12:32:25.275Z,5.47
2023-12-23T12:35:02.303Z,5.47
2023-12-23T12:37:30.366Z,5.51
2023-12-23T12:39:59.855Z,5.47
2023-12-23T12:42:28.960Z,5.49
2023-12-23T12:45:01.690Z,5.48
2023-12-23T12:47:31.605Z,5.48
2023-12-23T12:50:06.531Z,5.50
2023-12-23T12:52:36.574Z,5.50
2023-12-23T12:55:06.671Z,5.40
2023-12-23T12:57:34.519Z,5.40
2023-12-23T13:00:02.297Z,5.41
2023-12-23T13:02:32.181Z,5.44
2023-12-23T13:05:04.745Z,5.48
2023-12-23T13:07:32.552Z,5.47
2023-12-23T13:10:00.412Z,5.53
2023-12-23T13:12:28.370Z,5.49
2023-12-23T13:14:58.659Z,5.49
2023-12-23T13:17:26.514Z,5.55
2023-12-23T13:19:55.785Z,5.56
2023-12-23T13:22:24.955Z,5.57
2023-12-23T13:24:52.656Z,5.57
2023-12-23T13:27:21.239Z,5.55
2023-12-23T13:29:49.186Z,5.55
2023-12-23T13:32:17.406Z,5.61
2023-12-23T13:34:46.832Z,5.63
2023-12-23T13:37:16.919Z,5.60
2023-12-23T13:39:44.635Z,5.57
2023-12-23T13:42:15.390Z,5.62
2023-12-23T13:44:43.091Z,5.64
2023-12-23T13:47:10.779Z,5.66
2023-12-23T13:49:38.646Z,5.66
2023-12-23T13:52:06.660Z,5.61
2023-12-23T13:54:36.160Z,5.60
2023-12-23T13:57:03.904Z,5.61
2023-12-23T13:59:32.536Z,5.60
2023-12-23T14:02:00.367Z,5.60
2023-12-23T14:04:28.213Z,5.63
2023-12-23T14:06:56.000Z,5.57
2023-12-23T14:09:23.709Z,5.57
2023-12-23T14:11:53.124Z,5.63
2023-12-23T14:14:21.249Z,5.58
2023-12-23T14:16:49.161Z,5.53
2023-12-23T14:19:17.014Z,5.55
2023-12-23T14:21:45.213Z,5.61
2023-12-23T14:24:12.916Z,5.60
2023-12-23T14:26:40.901Z,5.60
2023-12-23T14:29:11.257Z,5.66
2023-12-23T14:31:39.182Z,5.67
2023-12-23T14:34:07.373Z,5.70
2023-12-23T14:36:35.523Z,5.73
2023-12-23T14:39:04.464Z,5.68
2023-12-23T14:41:32.863Z,5.67
2023-12-23T14:44:00.740Z,5.64
2023-12-23T14:46:32.268Z,5.63
2023-12-23T14:48:59.962Z,5.66
2023-12-23T14:51:28.641Z,5.68
2023-12-23T14:53:56.461Z,5.67
2023-12-23T14:56:24.141Z,5.67
2023-12-23T14:58:52.683Z,5.70
2023-12-23T15:01:20.887Z,5.71
2023-12-23T15:03:52.721Z,5.68
2023-12-23T15:06:21.830Z,5.65
2023-12-23T15:08:49.658Z,5.67
2023-12-23T15:11:20.185Z,5.66
2023-12-23T15:13:50.412Z,5.69
2023-12-23T15:16:18.329Z,5.68
2023-12-23T15:18:46.423Z,5.65
2023-12-23T15:21:16.385Z,5.67
2023-12-23T15:23:44.169Z,5.72
2023-12-23T15:26:14.415Z,5.79
2023-12-23T15:28:42.801Z,5.75
2023-12-23T15:31:10.800Z,5.76
2023-12-23T15:33:38.895Z,5.78
2023-12-23T15:36:07.984Z,5.78
2023-12-23T15:38:37.101Z,5.79
2023-12-23T15:41:05.217Z,5.79
2023-12-23T15:43:33.174Z,5.78
2023-12-23T15:46:01.242Z,5.80
2023-12-23T15:48:29.516Z,5.79
2023-12-23T15:50:57.469Z,5.82
2023-12-23T15:53:25.229Z,5.87
2023-12-23T15:55:54.456Z,5.84
2023-12-23T15:58:22.230Z,5.82
2023-12-23T16:00:50.359Z,5.82
2023-12-23T16:03:18.364Z,5.82
2023-12-23T16:05:46.510Z,5.86
2023-12-23T16:08:15.079Z,5.86
2023-12-23T16:10:42.914Z,5.83
2023-12-23T16:13:14.446Z,5.85
2023-12-23T16:15:42.126Z,5.82
2023-12-23T16:18:10.403Z,5.82
2023-12-23T16:20:38.517Z,5.86
2023-12-23T16:23:06.274Z,5.88
2023-12-23T16:25:34.225Z,5.87
2023-12-23T16:28:01.940Z,5.89
2023-12-23T16:30:31.028Z,5.92
2023-12-23T16:32:58.869Z,5.92
2023-12-23T16:35:26.704Z,5.91
2023-12-23T16:37:54.662Z,5.91
2023-12-23T16:40:22.442Z,5.90
2023-12-23T16:42:51.008Z,5.94
2023-12-23T16:45:19.963Z,5.92
2023-12-23T16:47:49.481Z,5.89
2023-12-23T16:50:17.868Z,5.89
2023-12-23T16:52:45.914Z,5.89
2023-12-23T16:55:13.864Z,5.90
2023-12-23T16:57:41.838Z,5.92
2023-12-23T17:00:10.497Z,5.94
2023-12-23T17:02:38.845Z,5.96
2023-12-23T17:05:08.875Z,5.98
2023-12-23T17:07:36.937Z,5.97
2023-12-23T17:10:05.396Z,5.98
2023-12-23T17:12:33.900Z,6.00
2023-12-23T17:15:01.649Z,6.03
2023-12-23T17:17:29.414Z,6.05
2023-12-23T17:19:57.353Z,6.06
2023-12-23T17:22:27.869Z,6.07
2023-12-23T17:24:56.184Z,6.11
2023-12-23T17:27:24.039Z,6.13
2023-12-23T17:29:52.769Z,6.12
2023-12-23T17:32:21.830Z,6.13
2023-12-23T17:34:49.873Z,6.13
2023-12-23T17:37:17.743Z,6.13
2023-12-23T17:39:48.094Z,6.09
2023-12-23T17:42:16.113Z,6.11
2023-12-23T17:44:44.267Z,6.13
2023-12-23T17:47:12.192Z,6.14
2023-12-23T17:49:40.086Z,6.13
2023-12-23T17:52:08.338Z,6.16
2023-12-23T17:54:36.415Z,6.16
2023-12-23T17:57:05.836Z,6.19
2023-12-23T17:59:35.876Z,6.19
2023-12-23T18:02:04.439Z,6.19
2023-12-23T18:04:35.729Z,6.20
2023-12-23T18:07:03.479Z,6.19
2023-12-23T18:09:31.730Z,6.17
2023-12-23T18:11:59.815Z,6.18
2023-12-23T18:14:29.698Z,6.21
2023-12-23T18:16:58.109Z,6.23
2023-12-23T18:19:25.929Z,6.26
2023-12-23T18:21:55.836Z,6.26
2023-12-23T18:24:23.722Z,6.26
2023-12-23T18:26:52.912Z,6.24
2023-12-23T18:29:21.051Z,6.25
2023-12-23T18:31:51.988Z,6.25
2023-12-23T18:34:21.043Z,6.25
2023-12-23T18:36:48.914Z,6.29
2023-12-23T18:39:17.054Z,6.30
2023-12-23T18:41:45.030Z,6.27
2023-12-23T18:44:13.506Z,6.26
2023-12-23T18:46:41.342Z,6.27
2023-12-23T18:49:10.559Z,6.29
2023-12-23T18:51:38.286Z,6.27
2023-12-23T18:54:06.285Z,6.24
2023-12-23T18:56:34.428Z,6.26
2023-12-23T18:59:05.346Z,6.31
2023-12-23T19:01:33.064Z,6.34
2023-12-23T19:04:01.819Z,6.37
2023-12-23T19:06:33.952Z,6.40
2023-12-23T19:09:01.954Z,6.44
2023-12-23T19:11:29.688Z,6.48
2023-12-23T19:13:57.484Z,6.50
2023-12-23T19:16:26.280Z,6.53
2023-12-23T19:18:54.598Z,6.57
2023-12-23T19:21:31.745Z,6.60
2023-12-23T19:23:59.557Z,6.62
2023-12-23T19:26:27.973Z,6.62
2023-12-23T19:28:56.112Z,6.65
2023-12-23T19:31:24.360Z,6.66
2023-12-23T19:33:53.060Z,6.70
2023-12-23T19:36:21.614Z,6.72
2023-12-23T19:38:50.906Z,6.78
2023-12-23T19:41:19.006Z,6.84
2023-12-23T19:43:49.703Z,6.98
2023-12-23T19:46:17.941Z,7.09
2023-12-23T19:48:45.807Z,7.11
2023-12-23T19:51:15.268Z,7.14
2023-12-23T19:53:43.296Z,7.18
2023-12-23T19:56:13.454Z,7.23
2023-12-23T19:58:41.564Z,7.27
2023-12-23T20:01:09.806Z,7.32
2023-12-23T20:03:40.057Z,7.35
2023-12-23T20:06:09.884Z,7.45
2023-12-23T20:08:38.050Z,7.61
2023-12-23T20:11:06.550Z,7.70
2023-12-23T20:13:36.319Z,7.81
2023-12-23T20:16:05.792Z,7.88
2023-12-23T20:18:34.203Z,7.94
2023-12-23T20:21:03.434Z,7.93
2023-12-23T20:23:31.604Z,7.85
2023-12-23T20:25:59.509Z,7.80
2023-12-23T20:28:27.277Z,7.77
2023-12-23T20:30:56.805Z,7.75
2023-12-23T20:33:24.809Z,7.75
2023-12-23T20:35:52.812Z,7.75
2023-12-23T20:38:23.636Z,7.74
2023-12-23T20:40:53.921Z,7.74
2023-12-23T20:43:24.213Z,7.75
2023-12-23T20:45:51.942Z,7.76
2023-12-23T20:48:21.485Z,7.76
2023-12-23T20:50:50.192Z,7.78
2023-12-23T20:53:18.547Z,7.78
2023-12-23T20:55:47.332Z,7.78
2023-12-23T20:58:15.041Z,7.79
2023-12-23T21:00:44.828Z,7.81
2023-12-23T21:03:13.042Z,7.81
2023-12-23T21:05:47.520Z,7.81
2023-12-23T21:08:18.034Z,7.82
2023-12-23T21:10:46.598Z,7.82
2023-12-23T21:13:14.317Z,7.85
2023-12-23T21:15:44.344Z,7.86
2023-12-23T21:18:12.374Z,7.87
2023-12-23T21:20:40.128Z,7.88
2023-12-23T21:23:09.544Z,7.89
2023-12-23T21:25:38.766Z,7.89
2023-12-23T21:28:08.191Z,7.90
2023-12-23T21:30:39.227Z,7.90
2023-12-23T21:33:07.187Z,7.90
2023-12-23T21:35:35.201Z,7.93
2023-12-23T21:38:04.511Z,7.93
2023-12-23T21:40:33.944Z,7.95
2023-12-23T21:43:02.053Z,7.94
2023-12-23T21:45:32.589Z,7.96
2023-12-23T21:48:00.472Z,7.99
2023-12-23T21:50:28.559Z,7.96
2023-12-23T21:52:56.339Z,7.99
2023-12-23T21:55:24.232Z,7.98
2023-12-23T21:57:54.105Z,7.99
2023-12-23T22:00:22.342Z,8.00
2023-12-23T22:02:51.138Z,8.02
2023-12-23T22:05:19.558Z,8.02
2023-12-23T22:07:47.609Z,8.04
2023-12-23T22:10:16.633Z,8.04
2023-12-23T22:12:44.701Z,8.04
2023-12-23T22:15:14.393Z,8.07
2023-12-23T22:17:42.247Z,8.06
2023-12-23T22:20:10.967Z,8.08
2023-12-23T22:22:38.704Z,8.08
2023-12-23T22:25:07.822Z,8.09
2023-12-23T22:27:35.581Z,8.09
2023-12-23T22:30:04.878Z,8.10
2023-12-23T22:32:36.027Z,8.09
2023-12-23T22:35:03.985Z,8.10
2023-12-23T22:37:31.796Z,8.10
2023-12-23T22:40:01.330Z,8.12
2023-12-23T22:42:31.290Z,8.14
2023-12-23T22:44:58.959Z,8.14
2023-12-23T22:47:28.077Z,8.15
2023-12-23T22:49:57.775Z,8.15
2023-12-23T22:52:25.630Z,8.15
2023-12-23T22:54:53.788Z,8.16
2023-12-23T22:57:21.561Z,8.17
2023-12-23T22:59:52.548Z,8.18
2023-12-23T23:02:22.131Z,8.17
2023-12-23T23:04:51.466Z,8.19
2023-12-23T23:07:21.171Z,8.17
2023-12-23T23:09:53.564Z,8.20
2023-12-23T23:12:21.601Z,8.18
2023-12-23T23:14:49.545Z,8.21
2023-12-23T23:17:17.214Z,8.20
2023-12-23T23:19:45.053Z,8.21
2023-12-23T23:22:13.537Z,8.21
2023-12-23T23:24:42.632Z,8.20
2023-12-23T23:27:10.664Z,8.22
2023-12-23T23:29:42.381Z,8.22
2023-12-23T23:32:10.351Z,8.21
2023-12-23T23:34:38.164Z,8.22
2023-12-23T23:37:08.742Z,8.22
2023-12-23T23:39:37.426Z,8.22
2023-12-23T23:42:07.268Z,8.23
2023-12-23T23:44:35.400Z,8.24
2023-12-23T23:47:03.063Z,8.25
2023-12-23T23:49:31.485Z,8.25
2023-12-23T23:51:59.425Z,8.25
2023-12-23T23:54:27.183Z,8.31
2023-12-23T23:56:58.424Z,8.38
2023-12-23T23:59:27.534Z,8.43
